Bega, New South Wales

11:13 PM EST on July 24, 2014 (GMT +1000)
Wallagoot Lake (INSWWALL2) Elev 30 ft | 36.78 °S, 149.94 °E | Change Station

Current weather conditions updated 3 seconds ago

Mostly Cloudy
Mostly Cloudy
52.7 °F
Feels Like 52.7 °F
N
2.3
Wind Variable Wind from NW
Gusts 6.0 mph

Tomorrow is forecast to be Warmer than today.

Today
High -- | Low -- °F
--% Chance of Precip.
Yesterday
High -- | Low -- °F
Precip. -- in
7:05 AM 5:09 PM
Waning Crescent, 5% visible
Pressure 30.06 in
Visibility 6.2 miles
Clouds Mostly Cloudy 10000 ft
Dew Point 52 °F
Humidity 99%
Rainfall 0.00 in
Snow Depth Not available.
UV 0 out of 12
Pollen Not available.
Air Quality Not available.
Flu Activity Not available.
METAR YMER 241300Z AUTO 00000KT 9999 // BKN100 09/08 Q1018

More Conditions Fewer Conditions

Pressure 30.06 in
Visibility 6.2 miles
Clouds Mostly Cloudy 10000 ft
Dew Point 52 °F
Humidity 99%
Rainfall 0.00 in
Snow Depth Not available.
UV 0 out of 12
Pollen Not available.
Air Quality Not available.
Flu Activity Not available.
METAR YMER 241300Z AUTO 00000KT 9999 // BKN100 09/08 Q1018

More Conditions Fewer Conditions

10-Day Weather Forecast

Almanac

Astronomy

Jul. 24, 2014 Rise Set
Actual Time 7:05 AM EST 5:09 PM EST
Civil Twilight 6:37 AM EST 5:37 PM EST
Nautical Twilight 6:05 AM EST 6:08 PM EST
Astronomical Twilight 5:35 AM EST 6:39 PM EST
Moon 4:36 AM EST 2:58 PM EST
Length of Visible Light 10h 59m
Length of Day
10h 04m
Tomorrow will be 1m 28s longer.
Waning Crescent, 5% of the Moon is Illuminated
Today
Waning Crescent
Jul 26
New
Aug 3
First Quarter
Aug 10
Full
Aug 17
Last Quarter

Yesterday's Extremes

Country Highs Country Lows

Community

WunderPhotos

Upload Photos

1,736,994 photos uploaded!

Nearby

Snow Depth

Not available.

Earthquake Activity

City Distance Mag. Time & Date
No recent earthquake activity has been reported nearby.
Minimum magnitude displayed is 2.5.

Coastal Water Temperatures

Place Temperature
No Stations Reporting

Nearby Weather Stations

Station Location Temp. Dew Point Humidity Wind Precip. Elev Updated Type
Wallagoot Lake, Wallagoot 52.7 °F 52 °F 99% NW  at  2.3 mph 0.00 in / hr 30 ft 11:13 PM EST Rapid Fire

Show More Stations Show Fewer Stations